Flight Track Log - Related Links

Times and Time Zones

All times are in EDT time to prevent confusion due to time zone crossing. See the EJA941 flight status page for this flight to view local times or setup timezone preferences in your user account.


Time Position Orientation Groundspeed Altitude Reporting Facility
EDT Latitude Longitude Course Direction KTS MPH feet Rate Location/Type
Wed 01:23:04 PM 41.5061 -81.7339 333° Northwest 194 223 1,900  Level Cleveland Center
Wed 01:23:58 PM 41.5517 -81.7650 333° Northwest 229 264 2,000 1,217 Climbing Cleveland Center
Wed 01:25:22 PM 41.6239 -81.8331 325° Northwest 239 275 4,700 2,727 Climbing Cleveland Center
Wed 01:26:21 PM 41.6375 -81.9111 283° West 223 257 8,500 3,200 Climbing Cleveland Center
Wed 01:27:22 PM 41.5950 -81.9853 233° Southwest 210 242 11,100 1,785 Climbing Cleveland Center
Wed 01:28:22 PM 41.5353 -82.0756 229° Southwest 264 304 12,100 1,600 Climbing Cleveland Center
Wed 01:29:22 PM 41.4572 -82.1625 220° Southwest 362 417 14,300 2,218 Climbing Cleveland Center
Wed 01:30:21 PM 41.3744 -82.2544 220° Southwest 385 443 16,500 1,815 Climbing Cleveland Center
Wed 01:31:21 PM 41.3003 -82.3356 219° Southwest 390 449 17,900 1,240 Climbing Cleveland Center
Wed 01:32:22 PM 41.2114 -82.4297 219° Southwest 407 468 19,000 1,289 Climbing Cleveland Center
Wed 01:33:22 PM 41.1178 -82.5289 219° Southwest 425 489 20,500 1,400 Climbing Cleveland Center
Wed 01:34:22 PM 41.0244 -82.6281 219° Southwest 436 502 21,800 1,200 Climbing Cleveland Center
Wed 01:35:22 PM 40.9267 -82.7350 220° Southwest 455 524 22,900 1,640 Climbing Cleveland Center
Wed 01:37:03 PM 40.7672 -82.9028 219° Southwest 445 512 26,200 1,914 Climbing Indianapolis Center
Wed 01:38:05 PM 40.6675 -83.0072 218° Southwest 453 521 28,100 1,935 Climbing Indianapolis Center
Wed 01:39:07 PM 40.5497 -83.1314 219° Southwest 460 529 30,200 1,742 Climbing Indianapolis Center
Wed 01:40:09 PM 40.4603 -83.2264 219° Southwest 469 540 31,700 1,694 Climbing Indianapolis Center
Wed 01:41:11 PM 40.3367 -83.3539 218° Southwest 480 552 33,700 1,597 Climbing Indianapolis Center
Wed 01:42:13 PM 40.2286 -83.4656 218° Southwest 492 566 35,000 1,366 Climbing Indianapolis Center
Wed 01:43:14 PM 40.1206 -83.5786 219° Southwest 506 582 36,500 1,317 Climbing Indianapolis Center
Wed 01:44:16 PM 40.0106 -83.6922 218° Southwest 496 571 37,700 726 Climbing Indianapolis Center
Wed 01:45:18 PM 39.9003 -83.8053 218° Southwest 506 582 38,000 145 Climbing Indianapolis Center
Wed 01:46:20 PM 39.7697 -83.9358 218° Southwest 508 585 38,000  Level Indianapolis Center
Wed 01:47:22 PM 39.6606 -84.0467 218° Southwest 498 573 38,000  Level Indianapolis Center
Wed 01:48:24 PM 39.5511 -84.1572 218° Southwest 496 571 38,000  Level Indianapolis Center
Wed 01:49:26 PM 39.4425 -84.2667 218° Southwest 493 567 38,000  Level Indianapolis Center
Wed 01:50:28 PM 39.3344 -84.3756 218° Southwest 489 563 38,000  Level Indianapolis Center
Wed 01:51:30 PM 39.2264 -84.4831 218° Southwest 486 559 38,000  Level Indianapolis Center
Wed 01:52:32 PM 39.1189 -84.5881 217° Southwest 482 555 38,000  Level Indianapolis Center
Wed 01:53:33 PM 39.0119 -84.6953 218° Southwest 483 556 38,000  Level Indianapolis Center
Wed 01:54:35 PM 38.8978 -84.8081 218° Southwest 483 556 38,000  Level Indianapolis Center
Wed 01:55:37 PM 38.7911 -84.9133 218° Southwest 481 554 38,000  Level Indianapolis Center
Wed 01:56:39 PM 38.6836 -85.0164 217° Southwest 478 550 38,000  Level Indianapolis Center
Wed 01:57:41 PM 38.5739 -85.1239 217° Southwest 477 549 38,000  Level Indianapolis Center
Wed 01:58:43 PM 38.4494 -85.2444 217° Southwest 478 550 38,000  Level Indianapolis Center
Wed 01:59:45 PM 38.3444 -85.3458 217° Southwest 472 543 38,000  Level Indianapolis Center
Wed 02:00:46 PM 38.2353 -85.4503 217° Southwest 482 555 38,000  Level Indianapolis Center
Wed 02:01:48 PM 38.1289 -85.5517 217° Southwest 480 552 38,000  Level Indianapolis Center
Wed 02:02:50 PM 38.0089 -85.6314 208° Southwest 483 556 38,000  Level Indianapolis Center
Wed 02:03:52 PM 37.8861 -85.7031 205° Southwest 483 556 38,000  Level Indianapolis Center
Wed 02:04:54 PM 37.7631 -85.7733 204° Southwest 481 554 38,000  Level Indianapolis Center
Wed 02:05:56 PM 37.6406 -85.8439 205° Southwest 480 552 38,000  Level Indianapolis Center
Wed 02:06:58 PM 37.5006 -85.9247 205° Southwest 476 548 38,000  Level Indianapolis Center
Wed 02:08:00 PM 37.3769 -85.9947 204° Southwest 481 554 38,000  Level Indianapolis Center
Wed 02:09:02 PM 37.2536 -86.0656 205° Southwest 481 554 38,000  Level Indianapolis Center
Wed 02:10:03 PM 37.1289 -86.1336 204° Southwest 485 558 38,000  Level Indianapolis Center
Wed 02:11:05 PM 37.0053 -86.2039 204° Southwest 483 556 38,000  Level Indianapolis Center
Wed 02:12:07 PM 36.8811 -86.2733 204° Southwest 482 555 38,000  Level Indianapolis Center
Wed 02:13:09 PM 36.7381 -86.3517 204° Southwest 486 559 38,000 -197 Level Memphis Center
Wed 02:14:09 PM 36.6314 -86.4061 202° Southwest 486 559 37,600 -1,050 Descending Memphis Center
Wed 02:15:09 PM 36.4961 -86.4100 181° South 474 545 35,900 -1,300 Descending Memphis Center
Wed 02:16:09 PM 36.3583 -86.4117 181° South 497 572 35,000 -450 Descending Memphis Center
Wed 02:17:09 PM 36.2064 -86.4189 182° South 502 578 35,000  Level Memphis Center
Wed 02:18:09 PM 36.0650 -86.4233 181° South 502 578 35,000 -300 Level Memphis Center
Wed 02:19:09 PM 35.9275 -86.4325 183° South 502 578 34,400 -1,650 Descending Memphis Center
Wed 02:20:09 PM 35.8133 -86.5147 210° Southwest 463 533 31,700 -2,800 Descending Memphis Center
Wed 02:21:09 PM 35.7039 -86.6144 217° Southwest 479 551 28,800 -2,750 Descending Memphis Center
Wed 02:22:09 PM 35.5900 -86.7164 216° Southwest 504 580 26,200 -2,350 Descending Memphis Center
Wed 02:23:09 PM 35.4803 -86.8156 216° Southwest 504 580 24,100 -2,050 Descending Memphis Center
Wed 02:24:09 PM 35.3867 -86.8986 216° Southwest 487 560 22,100 -2,200 Descending Memphis Center
Wed 02:25:09 PM 35.2936 -87.0017 222° Southwest 473 544 19,700 -2,150 Descending Memphis Center
Wed 02:26:09 PM 35.2006 -87.1069 223° Southwest 461 531 17,800 -2,100 Descending Memphis Center
Wed 02:27:09 PM 35.1172 -87.1992 222° Southwest 440 506 15,500 -2,250 Descending Memphis Center
Wed 02:28:09 PM 35.0403 -87.2858 223° Southwest 411 473 13,300 -2,050 Descending Memphis Center
Wed 02:29:09 PM 34.9731 -87.3617 223° Southwest 367 422 11,400 -2,000 Descending Memphis Center
Wed 02:30:09 PM 34.9144 -87.4297 224° Southwest 326 375 9,300 -2,500 Descending Memphis Center
Wed 02:31:09 PM 34.8553 -87.4897 220° Southwest 300 345 6,400 -2,700 Descending Memphis Center
Wed 02:32:09 PM 34.8086 -87.5444 224° Southwest 266 306 3,900 -1,950 Descending Memphis Center
Wed 02:33:09 PM 34.7847 -87.6033 244° Southwest 239 275 2,500 -1,400 Descending Memphis Center

Login

Don't have an account? Register now (free) for customized features, flight alerts, and more!